Time;durP1;ratioP1;P1;durP2;ratioP2;P2;SDS_P1;SDS_P2;PMS_P1;PMS_P2;Temp;Humidity;BMP_temperature;BMP_pressure;BME280_temperature;BME280_humidity;BME280_pressure;Samples;Min_cycle;Max_cycle;Signal;HPM_P1;HPM_P2
2023/09/06 00:01:05;;;;;;;4.65;1.65;;;;;;;25.95;43.40;101587.56;5071474;28;20480;-61
2023/09/06 00:03:30;;;;;;;5.80;2.22;;;;;;;25.90;43.83;101590.09;5073953;28;20029;-61
2023/09/06 00:05:58;;;;;;;1.80;1.70;;;;;;;25.86;43.76;101590.72;5073781;28;20027;-61
2023/09/06 00:08:24;;;;;;;2.70;1.75;;;;;;;25.83;43.75;101589.25;5072740;28;20040;-61
2023/09/06 00:10:49;;;;;;;7.78;2.42;;;;;;;25.79;44.14;101590.75;5055787;28;20028;-61
2023/09/06 00:13:16;;;;;;;3.13;1.67;;;;;;;25.76;44.06;101585.66;5072217;28;20177;-59
2023/09/06 00:15:42;;;;;;;5.38;1.52;;;;;;;25.72;43.77;101587.13;5073400;28;20032;-61
2023/09/06 00:18:07;;;;;;;4.45;2.13;;;;;;;25.72;43.90;101595.38;5073500;28;20017;-60
2023/09/06 00:20:38;;;;;;;5.28;1.65;;;;;;;25.70;43.92;101593.88;5055544;28;20033;-60
2023/09/06 00:23:05;;;;;;;3.88;1.80;;;;;;;25.68;44.42;101596.00;5073596;28;20021;-60
2023/09/06 00:25:32;;;;;;;3.20;1.52;;;;;;;25.64;43.91;101590.06;5073354;28;20561;-61
2023/09/06 00:27:59;;;;;;;6.53;1.75;;;;;;;25.60;44.43;101590.72;5072187;28;20063;-61
2023/09/06 00:30:24;;;;;;;5.07;1.67;;;;;;;25.56;44.00;101593.03;5073428;28;20032;-60
2023/09/06 00:32:53;;;;;;;5.70;1.98;;;;;;;25.53;44.20;101592.59;5072126;28;20082;-60
2023/09/06 00:35:19;;;;;;;4.25;1.70;;;;;;;25.52;44.40;101591.75;5055575;28;20043;-60
2023/09/06 00:37:44;;;;;;;8.20;2.13;;;;;;;25.50;44.56;101593.84;5073129;28;20508;-60
2023/09/06 00:40:21;;;;;;;4.65;1.92;;;;;;;25.49;44.13;101592.16;5072146;28;20032;-60
2023/09/06 00:42:51;;;;;;;4.35;2.08;;;;;;;25.46;44.81;101600.78;5071516;28;20029;-60
2023/09/06 00:45:21;;;;;;;3.95;1.58;;;;;;;25.43;44.15;101601.22;5071776;28;20097;-61
2023/09/06 00:47:46;;;;;;;4.88;1.90;;;;;;;25.38;44.35;101590.84;5071695;28;20033;-61
2023/09/06 00:50:14;;;;;;;3.03;1.70;;;;;;;25.38;44.62;101595.47;5073106;28;20035;-61
2023/09/06 00:52:41;;;;;;;4.28;1.90;;;;;;;25.34;44.49;101594.22;5055331;28;20032;-61
2023/09/06 00:55:08;;;;;;;3.03;2.17;;;;;;;25.30;44.76;101595.66;5055074;28;20036;-61
2023/09/06 00:57:33;;;;;;;3.95;1.58;;;;;;;25.24;44.64;101607.47;5054710;28;20058;-61
2023/09/06 00:59:59;;;;;;;3.90;2.28;;;;;;;25.19;44.91;101602.59;5054592;28;20032;-60
2023/09/06 01:02:27;;;;;;;3.92;1.55;;;;;;;25.16;45.21;101602.16;5071400;28;20032;-60
2023/09/06 01:04:53;;;;;;;2.72;1.25;;;;;;;25.11;44.88;101600.03;5054931;28;20496;-60
2023/09/06 01:07:20;;;;;;;5.35;2.10;;;;;;;25.08;44.84;101600.44;5071797;28;20047;-60
2023/09/06 01:09:45;;;;;;;4.07;1.77;;;;;;;25.07;44.73;101597.94;5054777;28;20036;-62
2023/09/06 01:12:12;;;;;;;6.57;2.08;;;;;;;25.05;45.12;101598.13;5071464;28;20040;-61
2023/09/06 01:14:40;;;;;;;5.97;2.33;;;;;;;25.02;44.75;101606.75;5071483;28;20032;-61
2023/09/06 01:17:06;;;;;;;2.20;1.55;;;;;;;24.98;45.17;101610.13;5072374;28;20449;-61
2023/09/06 01:19:33;;;;;;;2.25;1.45;;;;;;;24.96;45.04;101617.72;5072722;28;20032;-60
2023/09/06 01:22:08;;;;;;;3.40;2.03;;;;;;;24.91;45.85;101612.81;5071481;28;20029;-60
2023/09/06 01:24:35;;;;;;;3.40;2.20;;;;;;;24.87;45.27;101608.81;5054802;28;20105;-60
2023/09/06 01:27:00;;;;;;;2.15;1.80;;;;;;;24.84;45.28;101610.06;5071238;28;20082;-60
2023/09/06 01:29:29;;;;;;;2.63;1.73;;;;;;;24.82;45.73;101606.66;5071714;28;20036;-61
2023/09/06 01:31:54;;;;;;;3.03;1.73;;;;;;;24.78;45.14;101605.34;5071570;28;20439;-61
2023/09/06 01:34:19;;;;;;;4.95;2.05;;;;;;;24.76;45.79;101612.91;5072661;28;20043;-60
2023/09/06 01:36:45;;;;;;;5.03;1.63;;;;;;;24.73;45.49;101607.88;5054824;28;20403;-60
2023/09/06 01:39:10;;;;;;;6.32;2.03;;;;;;;24.69;45.84;101606.56;5072574;28;20037;-60
2023/09/06 01:41:35;;;;;;;3.10;1.80;;;;;;;24.69;45.74;101606.56;5072658;28;20029;-60
2023/09/06 01:44:01;;;;;;;5.60;2.00;;;;;;;24.67;45.56;101613.31;5072437;28;20032;-60
2023/09/06 01:46:26;;;;;;;4.00;1.90;;;;;;;24.62;45.88;101610.31;5072489;28;20486;-60
2023/09/06 01:48:52;;;;;;;8.15;2.42;;;;;;;24.61;45.41;101614.09;5072473;28;20036;-61
2023/09/06 01:51:17;;;;;;;4.57;1.85;;;;;;;24.58;46.01;101609.03;5072410;28;20124;-61
2023/09/06 01:53:42;;;;;;;4.47;2.72;;;;;;;24.55;45.47;101615.75;5072680;28;20039;-62
2023/09/06 01:56:08;;;;;;;5.40;2.47;;;;;;;24.54;45.23;101608.56;5075005;28;20029;-63
2023/09/06 01:58:37;;;;;;;2.78;1.98;;;;;;;24.52;45.68;101605.19;5058217;28;20029;-62
2023/09/06 02:01:05;;;;;;;3.85;1.75;;;;;;;24.47;45.18;101606.84;5076274;28;20032;-63
2023/09/06 02:03:34;;;;;;;3.30;2.05;;;;;;;24.44;45.29;101608.09;5075015;28;20555;-63
2023/09/06 02:06:03;;;;;;;5.88;2.20;;;;;;;24.42;45.57;101615.69;5076245;28;20042;-63
2023/09/06 02:08:28;;;;;;;2.05;1.80;;;;;;;24.39;45.38;101610.59;5074745;28;20494;-63
2023/09/06 02:10:54;;;;;;;3.13;2.40;;;;;;;24.37;46.26;101612.69;5074870;28;20191;-63
2023/09/06 02:13:19;;;;;;;6.07;2.22;;;;;;;24.33;46.02;101606.78;5074721;28;20642;-63
2023/09/06 02:15:44;;;;;;;10.50;2.88;;;;;;;24.31;46.33;101617.09;5075940;28;20029;-63
2023/09/06 02:18:15;;;;;;;2.38;1.55;;;;;;;24.26;46.26;101611.34;5074429;28;20079;-63
2023/09/06 02:20:41;;;;;;;3.50;2.20;;;;;;;24.27;46.14;101604.81;5074813;28;20059;-63
2023/09/06 02:23:07;;;;;;;4.55;2.15;;;;;;;24.23;46.02;101610.91;5074495;28;20081;-63
2023/09/06 02:25:33;;;;;;;4.38;1.85;;;;;;;24.22;46.29;101603.72;5074442;28;20111;-62
2023/09/06 02:28:06;;;;;;;2.55;1.73;;;;;;;24.21;45.95;101604.75;5074751;28;20025;-63
2023/09/06 02:30:32;;;;;;;7.28;2.35;;;;;;;24.18;46.23;101614.22;5074637;28;20028;-62
2023/09/06 02:32:58;;;;;;;4.60;1.77;;;;;;;24.15;46.24;101602.81;5074527;28;20108;-62
2023/09/06 02:35:23;;;;;;;4.30;2.17;;;;;;;24.14;46.28;101603.88;5074624;28;20036;-62
2023/09/06 02:37:48;;;;;;;3.60;1.70;;;;;;;24.11;46.30;101599.66;5075864;28;20028;-62
2023/09/06 02:40:17;;;;;;;5.18;1.77;;;;;;;24.08;46.28;101590.94;5075511;28;20119;-62
2023/09/06 02:42:43;;;;;;;2.13;1.45;;;;;;;24.04;45.74;101600.59;5075492;28;20082;-62
2023/09/06 02:45:11;;;;;;;5.05;2.00;;;;;;;24.00;46.42;101599.31;5074294;28;20036;-62
2023/09/06 02:47:48;;;;;;;4.07;2.15;;;;;;;24.00;46.01;101599.31;5074062;28;20040;-62
2023/09/06 02:50:23;;;;;;;3.67;2.25;;;;;;;23.97;46.96;101602.44;5074243;28;20037;-62
2023/09/06 02:52:52;;;;;;;5.03;1.85;;;;;;;23.94;46.87;101600.09;5057774;28;20024;-62
2023/09/06 02:55:18;;;;;;;8.30;2.25;;;;;;;23.92;46.55;101603.03;5076570;28;20484;-62
2023/09/06 02:57:44;;;;;;;2.75;1.67;;;;;;;23.90;46.01;101599.63;5075780;28;20105;-62
2023/09/06 03:00:26;;;;;;;5.25;1.83;;;;;;;23.90;46.60;101604.28;5075617;28;20133;-62
2023/09/06 03:02:59;;;;;;;4.50;1.87;;;;;;;23.88;46.04;101606.34;5075976;28;20112;-60
2023/09/06 03:05:26;;;;;;;4.20;1.90;;;;;;;23.86;46.04;101614.78;5074652;28;20036;-59
2023/09/06 03:07:53;;;;;;;3.53;2.13;;;;;;;23.84;47.05;101616.03;5075355;28;20036;-59
2023/09/06 03:10:20;;;;;;;3.30;2.15;;;;;;;23.80;47.08;101610.09;5078289;28;20078;-60
2023/09/06 03:12:56;;;;;;;7.75;2.58;;;;;;;23.77;47.02;101605.00;5083174;28;20036;-60
2023/09/06 03:15:22;;;;;;;3.78;1.92;;;;;;;23.74;46.57;101600.78;5081759;28;20094;-59
2023/09/06 03:17:53;;;;;;;4.60;2.13;;;;;;;23.76;47.37;101604.16;5081388;28;20032;-60
2023/09/06 03:20:22;;;;;;;3.67;1.60;;;;;;;23.72;46.25;101600.13;5081708;28;20055;-59
2023/09/06 03:22:50;;;;;;;3.45;2.65;;;;;;;23.71;46.94;101605.78;5077396;28;20032;-60
2023/09/06 03:25:16;;;;;;;4.20;1.95;;;;;;;23.67;46.51;101604.50;5076496;28;20052;-60
2023/09/06 03:27:42;;;;;;;5.70;2.03;;;;;;;23.65;46.74;101612.03;5076435;28;20095;-59
2023/09/06 03:30:08;;;;;;;2.60;2.38;;;;;;;23.63;46.26;101614.13;5076535;28;20033;-60
2023/09/06 03:32:34;;;;;;;5.07;1.63;;;;;;;23.59;46.41;101624.59;5074527;28;20111;-60
2023/09/06 03:35:00;;;;;;;3.83;2.03;;;;;;;23.57;46.72;101615.75;5073598;28;20054;-61
2023/09/06 03:37:28;;;;;;;8.65;2.00;;;;;;;23.59;47.26;101624.59;5073836;28;20047;-60
2023/09/06 03:39:55;;;;;;;4.72;1.80;;;;;;;23.55;47.00;101615.09;5073304;28;20033;-60
2023/09/06 03:42:23;;;;;;;3.60;2.30;;;;;;;23.54;46.74;101624.34;5056601;28;20034;-59
2023/09/06 03:44:49;;;;;;;4.50;2.30;;;;;;;23.53;46.63;101630.03;5074386;28;20125;-59
2023/09/06 03:47:15;;;;;;;3.92;2.00;;;;;;;23.47;46.92;101625.31;5074641;28;20036;-60
2023/09/06 03:49:43;;;;;;;2.75;2.03;;;;;;;23.45;46.66;101621.94;5056256;28;20411;-59
2023/09/06 03:52:10;;;;;;;4.50;1.90;;;;;;;23.46;47.27;101627.19;5073150;28;20399;-59
2023/09/06 03:54:36;;;;;;;2.60;1.98;;;;;;;23.42;47.33;101628.63;5073237;28;20029;-60
2023/09/06 03:57:04;;;;;;;5.07;2.58;;;;;;;23.40;47.40;101630.72;5072925;28;20040;-60
2023/09/06 03:59:35;;;;;;;2.47;1.70;;;;;;;23.40;47.04;101636.19;5073581;28;20040;-61
2023/09/06 04:02:01;;;;;;;3.30;1.88;;;;;;;23.37;46.82;101633.78;5073108;28;20029;-60
2023/09/06 04:04:28;;;;;;;5.95;1.95;;;;;;;23.35;47.36;101627.69;5074154;28;20099;-60
2023/09/06 04:06:54;;;;;;;4.35;1.83;;;;;;;23.34;47.50;101630.63;5072398;28;20090;-60
2023/09/06 04:09:27;;;;;;;2.53;1.60;;;;;;;23.31;47.40;101642.75;5073826;28;20033;-60
2023/09/06 04:11:53;;;;;;;3.03;1.60;;;;;;;23.28;46.79;101637.72;5056826;28;20108;-59
2023/09/06 04:14:18;;;;;;;2.13;1.58;;;;;;;23.25;46.53;101640.81;5072671;28;20116;-60
2023/09/06 04:16:44;;;;;;;4.82;1.60;;;;;;;23.20;47.03;101627.72;5071491;28;20047;-60
2023/09/06 04:19:09;;;;;;;2.45;1.60;;;;;;;23.20;46.77;101641.38;5073503;28;20043;-60
2023/09/06 04:21:37;;;;;;;3.70;2.10;;;;;;;23.16;46.43;101639.22;5072460;28;20029;-60
2023/09/06 04:24:03;;;;;;;4.65;1.98;;;;;;;23.17;47.12;101646.41;5072409;28;20033;-60
2023/09/06 04:26:29;;;;;;;5.28;1.63;;;;;;;23.15;47.07;101643.00;5073733;28;20058;-60
2023/09/06 04:28:54;;;;;;;3.47;1.77;;;;;;;23.12;46.92;101648.84;5072230;28;20523;-60
2023/09/06 04:31:20;;;;;;;3.90;1.50;;;;;;;23.11;46.41;101647.16;5073421;28;20102;-60
2023/09/06 04:33:45;;;;;;;2.85;1.80;;;;;;;23.09;46.38;101647.34;5072242;28;20587;-60
2023/09/06 04:36:10;;;;;;;3.88;1.83;;;;;;;23.09;47.59;101649.22;5072210;28;20404;-59
2023/09/06 04:38:36;;;;;;;3.80;2.20;;;;;;;23.07;46.74;101646.69;5073224;28;20078;-60
2023/09/06 04:41:02;;;;;;;4.55;2.35;;;;;;;23.05;47.39;101643.31;5073595;28;20043;-60
2023/09/06 04:43:28;;;;;;;3.20;2.42;;;;;;;23.07;46.61;101654.03;5074470;28;20032;-59
2023/09/06 04:45:54;;;;;;;5.10;2.58;;;;;;;23.04;46.82;101654.41;5072210;28;20081;-60
2023/09/06 04:48:23;;;;;;;6.80;2.30;;;;;;;23.05;46.83;101664.31;5071983;28;20032;-60
2023/09/06 04:50:48;;;;;;;7.88;2.10;;;;;;;23.05;46.86;101665.16;5073530;28;20067;-59
2023/09/06 04:53:17;;;;;;;3.92;1.58;;;;;;;23.03;47.11;101669.13;5072232;28;20058;-59
2023/09/06 04:55:42;;;;;;;4.55;2.28;;;;;;;22.99;47.27;101659.59;5073280;28;20029;-59
2023/09/06 04:58:08;;;;;;;2.05;1.42;;;;;;;22.99;47.36;101665.06;5072140;28;20028;-59
2023/09/06 05:00:41;;;;;;;3.70;2.13;;;;;;;22.96;47.05;101669.03;5054907;28;20033;-60
2023/09/06 05:03:08;;;;;;;3.22;1.55;;;;;;;22.91;47.34;101660.56;5071572;28;20508;-60
2023/09/06 05:05:35;;;;;;;2.33;1.77;;;;;;;22.92;47.81;101672.34;5073286;28;20036;-59
2023/09/06 05:08:03;;;;;;;3.63;1.80;;;;;;;22.89;47.70;101665.34;5071876;28;20048;-60
2023/09/06 05:10:28;;;;;;;3.03;1.55;;;;;;;22.89;46.86;101670.00;5073305;28;20100;-59
2023/09/06 05:12:54;;;;;;;3.15;1.63;;;;;;;22.87;48.05;101666.56;5071357;28;20051;-59
2023/09/06 05:15:19;;;;;;;3.33;2.33;;;;;;;22.89;46.95;101670.00;5071619;28;20020;-59
2023/09/06 05:17:44;;;;;;;4.20;2.13;;;;;;;22.90;47.63;101666.19;5072278;28;20044;-59
2023/09/06 05:20:25;;;;;;;2.10;1.80;;;;;;;22.94;47.25;101667.53;5071771;28;20021;-59
2023/09/06 05:22:50;;;;;;;4.18;2.42;;;;;;;22.97;47.09;101668.00;5073487;28;20028;-60
2023/09/06 05:25:16;;;;;;;5.53;2.72;;;;;;;23.03;47.03;101669.97;5072890;28;20170;-60
2023/09/06 05:27:41;;;;;;;4.25;2.40;;;;;;;23.09;46.93;101671.09;5071376;28;20043;-59
2023/09/06 05:30:07;;;;;;;4.43;2.50;;;;;;;23.16;47.03;101672.03;5072093;28;20476;-60
2023/09/06 05:32:33;;;;;;;5.00;2.10;;;;;;;23.26;47.27;101677.19;5071663;28;20082;-60
2023/09/06 05:34:59;;;;;;;3.92;2.08;;;;;;;23.33;47.67;101679.00;5072666;28;20036;-60
2023/09/06 05:37:25;;;;;;;3.72;2.42;;;;;;;23.42;46.85;101677.84;5072901;28;20480;-59
2023/09/06 05:39:50;;;;;;;7.57;2.35;;;;;;;23.52;47.13;101672.94;5054931;28;20115;-59
2023/09/06 05:42:16;;;;;;;2.47;1.83;;;;;;;23.64;47.53;101670.53;5071072;28;20082;-60
2023/09/06 05:44:43;;;;;;;6.88;2.72;;;;;;;23.78;47.63;101678.69;5071429;28;20037;-59
2023/09/06 05:47:09;;;;;;;6.03;2.83;;;;;;;23.93;46.86;101675.03;5071457;28;20115;-60
2023/09/06 05:49:35;;;;;;;5.38;2.80;;;;;;;24.08;47.18;101673.09;5068149;28;20028;-60
2023/09/06 05:52:02;;;;;;;3.42;2.20;;;;;;;24.26;46.90;101681.72;5072476;28;20047;-60
2023/09/06 05:54:27;;;;;;;3.00;1.75;;;;;;;24.42;46.39;101681.44;5071255;28;20484;-60
2023/09/06 05:56:53;;;;;;;3.78;2.20;;;;;;;24.62;46.74;101682.38;5070762;28;20028;-61
2023/09/06 05:59:19;;;;;;;3.88;2.45;;;;;;;24.84;46.19;101678.59;5070465;28;20032;-60
2023/09/06 06:01:44;;;;;;;5.25;3.15;;;;;;;25.05;46.42;101676.78;5071708;28;20061;-60
2023/09/06 06:04:11;;;;;;;6.25;2.80;;;;;;;25.28;46.21;101678.19;5070314;28;20033;-62
2023/09/06 06:06:36;;;;;;;5.13;2.47;;;;;;;25.49;46.25;101673.66;5070481;28;20054;-60
2023/09/06 06:09:03;;;;;;;4.18;2.70;;;;;;;25.74;45.79;101672.84;5070559;28;20548;-60
2023/09/06 06:11:29;;;;;;;4.43;2.40;;;;;;;25.93;45.98;101665.72;5071651;28;20037;-61
2023/09/06 06:13:54;;;;;;;4.75;2.47;;;;;;;26.13;45.56;101674.81;5070374;28;20396;-61
2023/09/06 06:16:20;;;;;;;5.60;2.60;;;;;;;26.27;45.71;101671.03;5070230;28;20064;-62
2023/09/06 06:18:48;;;;;;;5.15;3.17;;;;;;;26.45;45.38;101673.16;5070321;28;20029;-60
2023/09/06 06:21:13;;;;;;;6.05;2.72;;;;;;;26.62;45.01;101674.41;5053804;28;20039;-60
2023/09/06 06:23:38;;;;;;;9.45;2.97;;;;;;;26.76;45.43;101673.34;5072162;28;20036;-60
2023/09/06 06:26:04;;;;;;;5.28;2.90;;;;;;;26.90;45.22;101688.78;5070999;28;20033;-60
2023/09/06 06:28:29;;;;;;;4.68;2.97;;;;;;;27.03;45.14;101682.38;5072061;28;20120;-60
2023/09/06 06:30:55;;;;;;;7.75;2.92;;;;;;;27.17;44.40;101690.38;5072462;28;20559;-60
2023/09/06 06:33:21;;;;;;;5.90;2.88;;;;;;;27.33;45.17;101691.78;5074212;28;20032;-61
2023/09/06 06:35:46;;;;;;;8.10;3.03;;;;;;;27.50;44.33;101689.44;5091921;28;20077;-61
2023/09/06 06:38:11;;;;;;;6.88;2.92;;;;;;;27.66;44.31;101686.19;5092233;28;20069;-60
2023/09/06 06:40:37;;;;;;;6.55;2.97;;;;;;;27.83;44.42;101687.34;5091912;28;20061;-61
2023/09/06 06:43:02;;;;;;;6.40;3.25;;;;;;;28.01;44.53;101689.31;5095797;28;20039;-61
2023/09/06 06:45:28;;;;;;;6.72;3.80;;;;;;;28.18;43.76;101685.84;5095784;28;20107;-61
2023/09/06 06:47:53;;;;;;;6.53;2.92;;;;;;;28.41;44.22;101678.88;5094172;28;20028;-61
2023/09/06 06:50:19;;;;;;;7.60;3.33;;;;;;;28.58;43.17;101677.22;5093846;28;20036;-61
2023/09/06 06:52:46;;;;;;;9.85;3.30;;;;;;;28.76;43.43;101683.63;5095507;28;20032;-61
2023/09/06 06:55:11;;;;;;;6.60;2.95;;;;;;;28.94;43.15;101688.34;5094321;28;20058;-61
2023/09/06 06:57:37;;;;;;;7.10;3.15;;;;;;;29.17;42.85;101691.28;5095548;28;20051;-61
2023/09/06 07:00:06;;;;;;;6.80;2.90;;;;;;;29.40;42.87;101696.94;5095369;28;20488;-61
2023/09/06 07:02:31;;;;;;;9.70;3.08;;;;;;;29.58;42.64;101687.78;5094161;28;20070;-61
2023/09/06 07:04:57;;;;;;;6.57;3.30;;;;;;;29.80;42.05;101696.44;5094219;28;20028;-61
2023/09/06 07:07:23;;;;;;;5.90;2.85;;;;;;;30.00;41.97;101696.97;5095357;28;20111;-61
2023/09/06 07:09:49;;;;;;;8.10;2.45;;;;;;;30.19;41.86;101689.44;5095288;28;20032;-60
2023/09/06 07:12:14;;;;;;;5.10;2.53;;;;;;;30.38;41.44;101694.69;5094886;28;20030;-60
2023/09/06 07:14:40;;;;;;;9.27;2.55;;;;;;;30.58;41.79;101688.81;5090873;28;20052;-61
2023/09/06 07:17:05;;;;;;;5.78;2.53;;;;;;;30.77;41.21;101689.50;5072069;28;20064;-61
2023/09/06 07:19:30;;;;;;;12.27;2.63;;;;;;;30.96;40.99;101685.59;5073629;28;20086;-60
2023/09/06 07:21:56;;;;;;;5.32;2.45;;;;;;;31.14;40.53;101683.50;5073434;28;20033;-61
2023/09/06 07:24:21;;;;;;;3.88;2.53;;;;;;;31.38;40.46;101687.03;5073594;28;20102;-60
2023/09/06 07:26:48;;;;;;;5.68;2.78;;;;;;;31.58;40.58;101690.25;5074522;28;20060;-61
2023/09/06 07:29:13;;;;;;;6.68;2.30;;;;;;;31.78;40.54;101691.72;5074720;28;20338;-61
2023/09/06 07:31:39;;;;;;;5.78;2.42;;;;;;;32.00;39.85;101698.22;5074620;28;20032;-61
2023/09/06 07:34:04;;;;;;;8.55;2.45;;;;;;;32.17;39.32;101694.44;5074538;28;20116;-61
2023/09/06 07:36:30;;;;;;;7.68;2.50;;;;;;;32.34;39.45;101682.50;5074623;28;20048;-61
2023/09/06 07:38:57;;;;;;;5.80;2.38;;;;;;;32.56;38.82;101686.22;5073111;28;20495;-61
2023/09/06 07:41:22;;;;;;;5.25;2.53;;;;;;;32.70;38.53;101685.63;5074417;28;20025;-61
2023/09/06 07:43:48;;;;;;;3.30;1.90;;;;;;;32.84;39.39;101684.16;5073623;28;20031;-61
2023/09/06 07:46:13;;;;;;;3.63;2.22;;;;;;;32.96;38.62;101691.53;5074455;28;20068;-60
2023/09/06 07:48:39;;;;;;;3.92;1.85;;;;;;;33.13;38.28;101689.59;5073069;28;20044;-61
2023/09/06 07:51:05;;;;;;;2.75;1.80;;;;;;;33.31;38.04;101684.53;5072965;28;20108;-60
2023/09/06 07:53:30;;;;;;;8.13;1.92;;;;;;;33.48;38.77;101683.63;5072875;28;20110;-61
2023/09/06 07:55:56;;;;;;;10.90;2.10;;;;;;;33.67;37.18;101683.03;5074300;28;20141;-61
2023/09/06 07:58:22;;;;;;;6.00;1.88;;;;;;;33.81;37.00;101689.88;5072968;28;20108;-61
2023/09/06 08:00:48;;;;;;;3.45;2.20;;;;;;;33.94;37.52;101683.91;5074142;28;20404;-61
2023/09/06 08:03:14;;;;;;;2.53;1.67;;;;;;;34.06;36.77;101685.69;5073038;28;20036;-61
2023/09/06 08:05:39;;;;;;;2.83;1.95;;;;;;;34.19;37.39;101690.84;5072846;28;20043;-61
2023/09/06 08:08:06;;;;;;;4.85;2.10;;;;;;;34.30;36.68;101682.31;5073761;28;20033;-61
2023/09/06 08:10:33;;;;;;;4.03;2.15;;;;;;;34.47;37.03;101682.16;5073983;28;20043;-61
2023/09/06 08:12:58;;;;;;;3.78;1.90;;;;;;;34.65;36.06;101694.84;5072508;28;20025;-61
2023/09/06 08:15:24;;;;;;;3.67;1.90;;;;;;;34.81;36.49;101694.69;5074038;28;20109;-60
2023/09/06 08:17:49;;;;;;;3.47;1.98;;;;;;;34.97;35.69;101692.81;5073968;28;20057;-60
2023/09/06 08:20:16;;;;;;;4.13;2.17;;;;;;;35.17;35.79;101692.13;5072907;28;20508;-60
2023/09/06 08:22:42;;;;;;;2.20;1.80;;;;;;;35.30;34.97;101697.19;5072378;28;20045;-60
2023/09/06 08:25:07;;;;;;;1.65;1.35;;;;;;;35.39;35.06;101701.13;5072645;28;20035;-61
2023/09/06 08:27:33;;;;;;;2.10;1.90;;;;;;;35.52;35.33;101695.03;5055286;28;20384;-62
2023/09/06 08:29:58;;;;;;;3.88;1.90;;;;;;;35.70;35.20;101704.88;5073714;28;20025;-62
2023/09/06 08:32:24;;;;;;;2.97;1.80;;;;;;;35.86;35.07;101699.06;5072142;28;20127;-61
2023/09/06 08:34:50;;;;;;;2.90;1.60;;;;;;;36.01;34.96;101699.09;5073551;28;20040;-63
2023/09/06 08:37:16;;;;;;;2.33;1.40;;;;;;;36.13;34.67;101696.91;5073468;28;20048;-61
2023/09/06 08:39:41;;;;;;;2.33;1.90;;;;;;;36.25;34.40;101699.41;5073460;28;20028;-62
2023/09/06 08:42:07;;;;;;;2.45;1.50;;;;;;;36.36;34.23;101698.31;5055571;28;20045;-61
2023/09/06 08:44:32;;;;;;;4.13;1.60;;;;;;;36.48;34.71;101695.22;5072207;28;20041;-61
2023/09/06 08:47:02;;;;;;;3.28;1.58;;;;;;;36.60;34.30;101696.63;5073386;28;20041;-61
2023/09/06 08:49:27;;;;;;;5.22;1.50;;;;;;;36.72;33.82;101696.34;5073475;28;20033;-62
2023/09/06 08:51:58;;;;;;;3.80;1.70;;;;;;;36.95;33.54;101698.53;5075251;28;20043;-61
2023/09/06 08:54:24;;;;;;;2.70;1.60;;;;;;;37.16;33.53;101694.56;5072555;28;20025;-61
2023/09/06 08:56:50;;;;;;;6.30;1.60;;;;;;;37.32;33.77;101696.19;5073740;28;20028;-63
2023/09/06 08:59:17;;;;;;;3.67;1.70;;;;;;;37.45;33.69;101696.72;5074791;28;20440;-61
2023/09/06 09:01:43;;;;;;;6.28;1.58;;;;;;;37.57;33.10;101688.81;5071881;28;20037;-62
2023/09/06 09:04:09;;;;;;;3.15;1.60;;;;;;;37.77;32.88;101695.16;5072636;28;20043;-64
2023/09/06 09:06:34;;;;;;;1.70;1.60;;;;;;;37.98;32.34;101684.66;5076216;28;20052;-63
2023/09/06 09:09:13;;;;;;;3.75;2.25;;;;;;;38.20;32.84;101693.44;5075887;28;20040;-62
2023/09/06 09:11:49;;;;;;;3.10;1.65;;;;;;;38.34;32.28;101688.88;5075574;28;20032;-63
2023/09/06 09:14:25;;;;;;;2.08;1.73;;;;;;;38.50;32.42;101692.34;5072492;28;20055;-62
2023/09/06 09:16:57;;;;;;;2.05;1.30;;;;;;;38.59;31.60;101700.97;5054399;28;20048;-62
2023/09/06 09:19:23;;;;;;;3.10;1.77;;;;;;;38.63;31.74;101702.06;5071594;28;20077;-62
2023/09/06 09:21:52;;;;;;;3.75;1.90;;;;;;;38.69;30.98;101707.31;5073098;28;20028;-62
2023/09/06 09:24:25;;;;;;;4.15;1.90;;;;;;;38.73;31.84;101707.53;5071864;28;20047;-64
2023/09/06 09:26:51;;;;;;;3.72;1.55;;;;;;;38.72;30.35;101711.50;5071465;28;20057;-64
2023/09/06 09:29:16;;;;;;;3.25;1.55;;;;;;;38.73;30.48;101705.59;5071373;28;20124;-64
2023/09/06 09:31:42;;;;;;;7.93;2.20;;;;;;;38.75;31.19;101700.50;5071499;28;20039;-64
2023/09/06 09:34:07;;;;;;;6.03;1.83;;;;;;;38.87;31.30;101705.75;5072642;28;20025;-63
2023/09/06 09:36:34;;;;;;;4.30;1.60;;;;;;;39.10;31.19;101710.53;5072654;28;20033;-64
2023/09/06 09:39:06;;;;;;;3.65;2.00;;;;;;;39.40;30.02;101703.72;5071324;28;20028;-65
2023/09/06 09:41:32;;;;;;;5.20;2.08;;;;;;;39.99;30.37;101717.22;5071161;28;20078;-63
2023/09/06 09:44:13;;;;;;;5.82;2.83;;;;;;;40.91;29.13;101708.97;5054466;28;20037;-62
2023/09/06 09:46:39;;;;;;;;;;;;;;;42.61;28.19;101703.38;5071618;28;20033;-63
2023/09/06 09:49:06;;;;;;;4.13;1.60;;;;;;;44.78;25.51;101702.25;5071486;28;20383;-62
2023/09/06 09:51:33;;;;;;;5.82;2.00;;;;;;;44.42;25.82;101696.19;5071471;28;20124;-62
2023/09/06 09:53:59;;;;;;;3.75;1.85;;;;;;;43.77;26.33;101685.91;5071292;28;20067;-63
2023/09/06 09:56:24;;;;;;;6.38;2.15;;;;;;;43.39;26.75;101690.47;5071379;28;20389;-64
2023/09/06 09:58:51;;;;;;;4.97;2.20;;;;;;;43.12;26.60;101690.69;5071336;28;20029;-62
2023/09/06 10:01:17;;;;;;;2.47;1.98;;;;;;;43.00;26.87;101682.06;5054623;28;20522;-62
2023/09/06 10:03:44;;;;;;;6.28;1.80;;;;;;;43.04;26.77;101680.22;5072745;28;20043;-63
2023/09/06 10:06:10;;;;;;;2.10;1.60;;;;;;;43.13;26.52;101675.44;5072716;28;20094;-64
2023/09/06 10:08:36;;;;;;;1.90;1.60;;;;;;;43.22;26.78;101679.13;5071144;28;20463;-63
2023/09/06 10:11:06;;;;;;;2.38;2.17;;;;;;;43.40;26.11;101678.84;5071162;28;20032;-64
2023/09/06 10:13:32;;;;;;;3.83;2.08;;;;;;;43.62;26.37;101677.88;5071377;28;20043;-61
2023/09/06 10:15:58;;;;;;;3.63;1.75;;;;;;;43.84;26.68;101679.75;5074150;28;20052;-61
2023/09/06 10:18:23;;;;;;;1.65;1.55;;;;;;;44.01;25.88;101680.56;5058149;28;20060;-62
2023/09/06 10:20:49;;;;;;;6.93;2.58;;;;;;;44.20;25.86;101679.44;5074830;28;20055;-62
2023/09/06 10:23:14;;;;;;;7.10;1.80;;;;;;;44.39;25.21;101685.53;5074606;28;20107;-63
2023/09/06 10:25:40;;;;;;;3.92;2.15;;;;;;;44.52;25.02;101678.88;5074709;28;20032;-62
2023/09/06 10:28:06;;;;;;;1.95;1.75;;;;;;;44.65;25.07;101677.84;5058134;28;20048;-62
2023/09/06 10:30:34;;;;;;;4.32;2.00;;;;;;;44.73;24.61;101674.13;5075525;28;20064;-62
2023/09/06 10:33:01;;;;;;;5.65;3.03;;;;;;;44.87;24.67;101674.75;5074468;28;20040;-62
2023/09/06 10:35:30;;;;;;;2.10;1.70;;;;;;;45.03;24.45;101670.22;5075568;28;20500;-62
2023/09/06 10:38:18;;;;;;;3.50;2.00;;;;;;;45.21;24.09;101668.09;5075611;28;20115;-62
2023/09/06 10:40:49;;;;;;;2.50;2.30;;;;;;;45.39;24.30;101678.19;5074461;28;20052;-63
2023/09/06 10:43:16;;;;;;;2.15;2.00;;;;;;;45.38;23.83;101673.69;5074331;28;20583;-62
2023/09/06 10:45:56;;;;;;;1.95;1.48;;;;;;;45.36;23.60;101669.53;5057976;28;20063;-61
2023/09/06 10:48:23;;;;;;;6.05;1.90;;;;;;;45.41;23.66;101670.16;5057621;28;20040;-61
2023/09/06 10:51:08;;;;;;;4.82;1.90;;;;;;;45.44;23.34;101658.16;5074415;28;20056;-63
2023/09/06 10:53:37;;;;;;;2.15;1.65;;;;;;;45.47;23.17;101660.31;5075153;28;20040;-62
2023/09/06 10:56:03;;;;;;;3.92;2.08;;;;;;;45.54;23.38;101660.56;5074986;28;20483;-62
2023/09/06 10:58:30;;;;;;;3.28;1.75;;;;;;;45.59;23.18;101663.19;5086412;28;20020;-62
2023/09/06 11:01:18;;;;;;;5.50;1.80;;;;;;;45.63;22.84;101650.00;5082988;28;20107;-61
2023/09/06 11:03:49;;;;;;;2.85;1.88;;;;;;;45.69;23.35;101662.00;5086077;28;20040;-61
2023/09/06 11:06:15;;;;;;;2.92;1.70;;;;;;;45.76;23.08;101655.78;5073914;28;20101;-62
2023/09/06 11:08:40;;;;;;;2.08;1.88;;;;;;;45.78;22.89;101648.59;5083849;28;20530;-62
2023/09/06 11:11:09;;;;;;;4.63;2.15;;;;;;;45.73;22.82;101648.81;5075926;28;20029;-62
2023/09/06 11:13:35;;;;;;;2.47;1.70;;;;;;;45.74;22.95;101643.94;5075778;28;20032;-62
2023/09/06 11:16:02;;;;;;;3.95;2.00;;;;;;;45.69;23.30;101648.66;5074450;28;20043;-62
2023/09/06 11:18:28;;;;;;;3.20;2.05;;;;;;;45.67;22.37;101641.69;5057255;28;20123;-61
2023/09/06 11:20:54;;;;;;;2.17;1.83;;;;;;;45.78;22.69;101631.59;5075252;28;20070;-62
2023/09/06 11:23:19;;;;;;;4.75;2.03;;;;;;;45.94;22.70;101626.91;5073688;28;20396;-62